createdAt,value
2017-12-13T00:00:53.582Z,26.20
2017-12-13T00:03:21.206Z,20.10
2017-12-13T00:05:48.824Z,20.00
2017-12-13T00:08:16.673Z,19.77
2017-12-13T00:10:44.288Z,27.30
2017-12-13T00:13:12.717Z,20.97
2017-12-13T00:15:40.363Z,13.13
2017-12-13T00:18:07.971Z,19.43
2017-12-13T00:20:36.357Z,11.70
2017-12-13T00:23:05.009Z,21.60
2017-12-13T00:25:32.618Z,21.30
2017-12-13T00:28:00.994Z,17.53
2017-12-13T00:30:29.434Z,13.80
2017-12-13T00:32:57.634Z,18.47
2017-12-13T00:35:26.800Z,15.00
2017-12-13T00:37:54.676Z,23.47
2017-12-13T00:40:22.329Z,11.80
2017-12-13T00:42:50.134Z,15.40
2017-12-13T00:45:18.707Z,24.10
2017-12-13T00:47:46.336Z,23.90
2017-12-13T00:50:14.211Z,12.53
2017-12-13T00:52:42.011Z,13.30
2017-12-13T00:55:10.397Z,14.43
2017-12-13T00:57:39.115Z,21.77
2017-12-13T01:00:06.800Z,17.00
2017-12-13T01:02:34.670Z,16.37
2017-12-13T01:05:02.302Z,14.23
2017-12-13T01:07:30.143Z,19.20
2017-12-13T01:09:58.693Z,17.00
2017-12-13T01:12:26.370Z,10.60
2017-12-13T01:14:54.323Z,20.00
2017-12-13T01:17:21.956Z,14.17
2017-12-13T01:19:49.611Z,19.40
2017-12-13T01:22:17.248Z,20.30
2017-12-13T01:24:45.630Z,13.73
2017-12-13T01:27:14.023Z,14.90
2017-12-13T01:29:41.685Z,24.90
2017-12-13T01:32:09.307Z,15.20
2017-12-13T01:34:36.934Z,18.23
2017-12-13T01:37:04.581Z,18.60
2017-12-13T01:39:32.202Z,17.57
2017-12-13T01:42:00.620Z,19.17
2017-12-13T01:44:28.243Z,20.53
2017-12-13T01:46:55.871Z,21.50
2017-12-13T01:49:23.532Z,18.40
2017-12-13T01:51:51.502Z,21.50
2017-12-13T01:54:19.366Z,22.40
2017-12-13T01:56:47.032Z,24.67
2017-12-13T01:59:14.674Z,22.97
2017-12-13T02:01:42.458Z,13.27
2017-12-13T02:04:10.135Z,25.77
2017-12-13T02:06:37.768Z,16.57
2017-12-13T02:09:05.459Z,13.93
2017-12-13T02:11:33.086Z,16.80
2017-12-13T02:14:01.685Z,15.63
2017-12-13T02:16:29.587Z,17.00
2017-12-13T02:18:57.247Z,17.43
2017-12-13T02:21:24.979Z,19.40
2017-12-13T02:23:52.646Z,20.00
2017-12-13T02:26:20.354Z,11.90
2017-12-13T02:28:48.892Z,13.97
2017-12-13T02:31:16.556Z,13.93
2017-12-13T02:33:44.223Z,16.30
2017-12-13T02:36:11.851Z,22.27
2017-12-13T02:38:39.588Z,17.10
2017-12-13T02:41:07.998Z,18.30
2017-12-13T02:43:35.664Z,14.20
2017-12-13T02:46:03.349Z,14.57
2017-12-13T02:48:31.419Z,26.87
2017-12-13T02:50:59.111Z,17.07
2017-12-13T02:53:26.852Z,17.50
2017-12-13T02:55:54.519Z,17.40
2017-12-13T02:58:22.235Z,20.87
2017-12-13T03:00:50.712Z,18.17
2017-12-13T03:03:19.090Z,17.73
2017-12-13T03:05:47.635Z,23.37
2017-12-13T03:08:15.277Z,23.80
2017-12-13T03:10:42.955Z,23.40
2017-12-13T03:13:11.367Z,23.93
2017-12-13T03:15:39.806Z,23.77
2017-12-13T03:18:07.565Z,23.53
2017-12-13T03:20:35.210Z,20.57
2017-12-13T03:23:02.861Z,28.30
2017-12-13T03:25:30.482Z,27.50
2017-12-13T03:27:58.146Z,24.00
2017-12-13T03:30:25.763Z,27.50
2017-12-13T03:32:54.361Z,29.37
2017-12-13T03:35:22.045Z,23.40
2017-12-13T03:37:49.922Z,18.97
2017-12-13T03:40:18.303Z,27.77
2017-12-13T03:42:45.959Z,24.17
2017-12-13T03:45:13.596Z,21.50
2017-12-13T03:47:41.206Z,20.60
2017-12-13T03:50:09.606Z,29.13
2017-12-13T03:52:37.223Z,23.50
2017-12-13T03:55:05.147Z,25.20
2017-12-13T03:57:32.799Z,27.07
2017-12-13T04:00:00.608Z,17.93
2017-12-13T04:02:29.037Z,22.97
2017-12-13T04:04:56.693Z,21.30
2017-12-13T04:07:24.390Z,22.00
2017-12-13T04:09:52.056Z,24.40
2017-12-13T04:12:19.715Z,28.47
2017-12-13T04:14:47.394Z,18.80
2017-12-13T04:17:15.068Z,23.57
2017-12-13T04:19:42.923Z,27.10
2017-12-13T04:22:10.562Z,22.90
2017-12-13T04:24:38.219Z,25.20
2017-12-13T04:27:05.844Z,22.97
2017-12-13T04:29:34.286Z,22.87
2017-12-13T04:32:01.948Z,20.93
2017-12-13T04:34:29.615Z,23.63
2017-12-13T04:36:57.226Z,21.47
2017-12-13T04:39:24.874Z,19.80
2017-12-13T04:41:53.256Z,25.20
2017-12-13T04:44:21.646Z,21.50
2017-12-13T04:46:50.051Z,22.20
2017-12-13T04:49:17.714Z,23.17
2017-12-13T04:51:45.367Z,14.17
2017-12-13T04:54:13.061Z,19.97
2017-12-13T04:56:40.674Z,18.40
2017-12-13T04:59:09.115Z,27.73
2017-12-13T05:01:36.819Z,18.47
2017-12-13T05:04:04.529Z,24.30
2017-12-13T05:06:32.172Z,23.77
2017-12-13T05:08:59.791Z,22.87
2017-12-13T05:11:28.347Z,24.73
2017-12-13T05:13:55.998Z,19.47
2017-12-13T05:16:23.671Z,24.70
2017-12-13T05:18:51.302Z,18.30
2017-12-13T05:21:18.982Z,26.13
2017-12-13T05:23:46.606Z,18.47
2017-12-13T05:26:14.262Z,26.10
2017-12-13T05:28:42.655Z,16.77
2017-12-13T05:31:10.275Z,24.97
2017-12-13T05:33:39.438Z,18.13
2017-12-13T05:36:07.076Z,17.00
2017-12-13T05:38:34.717Z,18.00
2017-12-13T05:41:03.109Z,18.97
2017-12-13T05:43:30.774Z,16.60
2017-12-13T05:45:58.382Z,20.80
2017-12-13T05:48:26.858Z,16.93
2017-12-13T05:50:54.615Z,15.73
2017-12-13T05:53:22.226Z,17.13
2017-12-13T05:55:50.648Z,14.87
2017-12-13T05:58:18.259Z,14.70
2017-12-13T06:00:46.679Z,16.07
2017-12-13T06:03:14.295Z,18.30
2017-12-13T06:05:41.902Z,16.97
2017-12-13T06:08:09.591Z,20.00
2017-12-13T06:10:37.247Z,11.07
2017-12-13T06:13:04.913Z,12.23
2017-12-13T06:15:32.547Z,16.00
2017-12-13T06:18:00.347Z,14.00
2017-12-13T06:20:28.004Z,12.27
2017-12-13T06:22:55.680Z,13.97
2017-12-13T06:25:23.291Z,11.53
2017-12-13T06:27:50.903Z,11.70
2017-12-13T06:30:19.312Z,7.07
2017-12-13T06:32:47.859Z,12.77
2017-12-13T06:35:15.504Z,8.30
2017-12-13T06:37:43.231Z,13.80
2017-12-13T06:40:11.669Z,7.20
2017-12-13T06:42:39.284Z,9.57
2017-12-13T06:45:06.971Z,12.10
2017-12-13T06:47:34.583Z,13.90
2017-12-13T06:50:02.980Z,17.30
2017-12-13T06:52:30.633Z,9.50
2017-12-13T06:54:59.022Z,15.87
2017-12-13T06:57:26.670Z,12.03
2017-12-13T06:59:55.108Z,9.00
2017-12-13T07:02:22.735Z,10.70
2017-12-13T07:04:50.370Z,8.30
2017-12-13T07:07:18.815Z,12.40
2017-12-13T07:09:46.466Z,10.33
2017-12-13T07:12:14.070Z,8.00
2017-12-13T07:14:42.611Z,9.63
2017-12-13T07:17:10.215Z,8.63
2017-12-13T07:19:38.681Z,10.60
2017-12-13T07:22:06.311Z,13.57
2017-12-13T07:24:33.917Z,9.47
2017-12-13T07:27:02.366Z,7.67
2017-12-13T07:29:29.988Z,7.23
2017-12-13T07:31:57.651Z,9.47
2017-12-13T07:34:25.268Z,12.90
2017-12-13T07:36:53.647Z,9.57
2017-12-13T07:39:22.209Z,7.80
2017-12-13T07:41:50.640Z,7.60
2017-12-13T07:44:19.166Z,9.33
2017-12-13T07:46:46.798Z,7.60
2017-12-13T07:49:14.410Z,6.60
2017-12-13T07:51:42.122Z,8.40
2017-12-13T07:54:09.728Z,4.80
2017-12-13T07:56:37.373Z,6.40
2017-12-13T07:59:05.173Z,8.23
2017-12-13T08:01:32.778Z,7.87
2017-12-13T08:04:00.411Z,5.23
2017-12-13T08:06:28.943Z,10.07
2017-12-13T08:08:56.582Z,8.63
2017-12-13T08:11:24.367Z,4.87
2017-12-13T08:13:51.995Z,6.80
2017-12-13T08:16:20.358Z,5.40
2017-12-13T08:18:48.755Z,5.57
2017-12-13T08:21:16.391Z,11.27
2017-12-13T08:23:44.039Z,5.50
2017-12-13T08:26:13.168Z,5.53
2017-12-13T08:28:41.596Z,6.77
2017-12-13T08:31:09.233Z,3.93
2017-12-13T08:33:36.842Z,4.37
2017-12-13T08:36:05.306Z,8.17
2017-12-13T08:38:32.917Z,6.50
2017-12-13T08:41:00.636Z,5.80
2017-12-13T08:43:28.298Z,5.43
2017-12-13T08:45:56.164Z,7.20
2017-12-13T08:48:23.811Z,6.17
2017-12-13T08:50:51.496Z,5.03
2017-12-13T08:53:19.931Z,3.87
2017-12-13T08:55:47.547Z,5.80
2017-12-13T08:58:15.214Z,5.03
2017-12-13T09:00:42.955Z,8.73
2017-12-13T09:03:10.710Z,5.70
2017-12-13T09:05:38.363Z,5.77
2017-12-13T09:08:06.256Z,4.57
2017-12-13T09:10:33.916Z,4.10
2017-12-13T09:13:01.550Z,3.37
2017-12-13T09:15:29.204Z,2.87
2017-12-13T09:17:57.220Z,3.47
2017-12-13T09:20:25.761Z,6.30
2017-12-13T09:22:53.545Z,4.20
2017-12-13T09:25:21.329Z,5.07
2017-12-13T09:27:49.725Z,4.40
2017-12-13T09:30:18.175Z,2.57
2017-12-13T09:32:46.043Z,5.87
2017-12-13T09:35:13.712Z,4.50
2017-12-13T09:37:41.340Z,5.00
2017-12-13T09:40:08.956Z,5.67
2017-12-13T09:42:37.396Z,4.20
2017-12-13T09:45:05.042Z,3.17
2017-12-13T09:47:32.725Z,15.80
2017-12-13T09:50:00.364Z,6.17
2017-12-13T09:52:28.036Z,6.83
2017-12-13T09:54:55.740Z,6.60
2017-12-13T09:57:23.481Z,9.27
2017-12-13T09:59:51.142Z,5.07
2017-12-13T10:02:18.773Z,4.20
2017-12-13T10:04:46.572Z,3.63
2017-12-13T10:07:14.203Z,4.27
2017-12-13T10:09:41.809Z,3.60
2017-12-13T10:12:09.672Z,4.60
2017-12-13T10:14:37.321Z,4.40
2017-12-13T10:17:04.978Z,7.27
2017-12-13T10:19:32.614Z,6.63
2017-12-13T10:22:00.269Z,3.87
2017-12-13T10:24:28.812Z,6.10
2017-12-13T10:26:56.575Z,5.33
2017-12-13T10:29:25.784Z,6.50
2017-12-13T10:31:53.444Z,8.20
2017-12-13T10:34:21.096Z,8.80
2017-12-13T10:36:48.739Z,5.20
2017-12-13T10:39:16.729Z,2.37
2017-12-13T10:41:44.351Z,4.80
2017-12-13T10:44:11.997Z,3.57
2017-12-13T10:46:39.694Z,4.00
2017-12-13T10:49:07.368Z,6.50
2017-12-13T10:51:35.025Z,10.03
2017-12-13T10:54:02.785Z,4.67
2017-12-13T10:56:30.417Z,4.90
2017-12-13T10:58:58.108Z,3.30
2017-12-13T11:01:25.800Z,4.03
2017-12-13T11:03:54.919Z,4.73
2017-12-13T11:06:23.577Z,3.33
2017-12-13T11:08:51.974Z,3.67
2017-12-13T11:11:20.439Z,5.73
2017-12-13T11:13:49.620Z,3.33
2017-12-13T11:16:17.256Z,2.47
2017-12-13T11:18:44.976Z,3.40
2017-12-13T11:21:12.608Z,9.03
2017-12-13T11:23:42.112Z,4.67
2017-12-13T11:26:09.768Z,3.13
2017-12-13T11:28:37.568Z,6.30
2017-12-13T11:31:06.116Z,5.10
2017-12-13T11:33:33.765Z,3.30
2017-12-13T11:36:01.484Z,3.03
2017-12-13T11:38:29.858Z,3.23
2017-12-13T11:40:57.533Z,2.40
2017-12-13T11:43:25.992Z,3.10
2017-12-13T11:45:53.691Z,2.00
2017-12-13T11:48:21.392Z,8.40
2017-12-13T11:50:49.039Z,2.50
2017-12-13T11:53:16.704Z,4.57
2017-12-13T11:55:44.313Z,2.50
2017-12-13T11:58:11.961Z,6.03
2017-12-13T12:00:40.397Z,7.10
2017-12-13T12:03:08.045Z,4.83
2017-12-13T12:05:36.071Z,1.50
2017-12-13T12:08:04.772Z,2.43
2017-12-13T12:10:32.734Z,3.40
2017-12-13T12:13:02.336Z,3.07
2017-12-13T12:15:30.304Z,4.30
2017-12-13T12:17:58.237Z,3.43
2017-12-13T12:20:26.148Z,1.93
2017-12-13T12:22:53.830Z,4.77
2017-12-13T12:25:22.247Z,5.30
2017-12-13T12:27:49.870Z,2.80
2017-12-13T12:30:26.001Z,4.00
2017-12-13T12:32:53.858Z,2.90
2017-12-13T12:35:22.661Z,2.20
2017-12-13T12:37:50.307Z,3.73
2017-12-13T12:40:17.970Z,2.30
2017-12-13T12:42:45.571Z,2.37
2017-12-13T12:45:14.036Z,5.73
2017-12-13T12:47:41.648Z,4.40
2017-12-13T12:50:09.296Z,3.23
2017-12-13T12:52:36.923Z,3.53
2017-12-13T12:55:05.297Z,3.17
2017-12-13T12:57:33.732Z,1.80
2017-12-13T13:00:01.347Z,2.10
2017-12-13T13:02:29.078Z,6.63
2017-12-13T13:04:56.695Z,3.00
2017-12-13T13:07:25.128Z,4.10
2017-12-13T13:09:52.754Z,3.10
2017-12-13T13:12:20.453Z,2.20
2017-12-13T13:14:48.074Z,4.73
2017-12-13T13:17:15.706Z,1.90
2017-12-13T13:19:43.372Z,4.30
2017-12-13T13:22:10.998Z,1.97
2017-12-13T13:24:38.677Z,2.93
2017-12-13T13:27:06.528Z,2.30
2017-12-13T13:29:34.205Z,6.30
2017-12-13T13:32:01.869Z,1.67
2017-12-13T13:34:29.610Z,5.47
2017-12-13T13:36:57.286Z,2.27
2017-12-13T13:39:24.987Z,7.50
2017-12-13T13:41:53.397Z,1.70
2017-12-13T13:44:21.183Z,3.87
2017-12-13T13:46:48.876Z,1.63
2017-12-13T13:49:17.342Z,3.43
2017-12-13T13:51:45.021Z,3.00
2017-12-13T13:54:12.764Z,2.00
2017-12-13T13:56:40.403Z,2.23
2017-12-13T13:59:08.079Z,3.10
2017-12-13T14:01:35.717Z,2.20
2017-12-13T14:04:03.378Z,3.90
2017-12-13T14:06:31.160Z,2.77
2017-12-13T14:08:58.812Z,5.00
2017-12-13T14:11:26.417Z,1.50
2017-12-13T14:13:55.600Z,3.30
2017-12-13T14:16:23.224Z,2.37
2017-12-13T14:18:50.869Z,2.63
2017-12-13T14:21:18.678Z,3.40
2017-12-13T14:23:46.336Z,2.53
2017-12-13T14:26:13.986Z,2.50
2017-12-13T14:28:41.607Z,5.33
2017-12-13T14:31:10.022Z,5.30
2017-12-13T14:33:37.705Z,2.93
2017-12-13T14:36:05.318Z,2.27
2017-12-13T14:38:33.729Z,3.67
2017-12-13T14:41:01.356Z,2.27
2017-12-13T14:43:29.767Z,5.83
2017-12-13T14:45:57.388Z,1.70
2017-12-13T14:48:25.810Z,2.63
2017-12-13T14:50:53.420Z,2.77
2017-12-13T14:53:21.062Z,1.90
2017-12-13T14:55:48.670Z,3.70
2017-12-13T14:58:17.208Z,2.30
2017-12-13T15:00:44.853Z,2.37
2017-12-13T15:03:12.536Z,2.93
2017-12-13T15:05:40.188Z,1.87
2017-12-13T15:08:07.804Z,3.23
2017-12-13T15:10:36.206Z,2.13
2017-12-13T15:13:03.897Z,2.77
2017-12-13T15:15:31.531Z,3.50
2017-12-13T15:17:59.211Z,2.37
2017-12-13T15:20:34.771Z,1.97
2017-12-13T15:23:02.395Z,2.70
2017-12-13T15:25:30.031Z,6.67
2017-12-13T15:27:58.588Z,1.60
2017-12-13T15:30:27.706Z,1.40
2017-12-13T15:32:56.152Z,2.00
2017-12-13T15:35:23.765Z,2.33
2017-12-13T15:37:52.180Z,1.80
2017-12-13T15:40:19.959Z,2.50
2017-12-13T15:42:47.777Z,1.73
2017-12-13T15:45:15.449Z,2.20
2017-12-13T15:47:43.120Z,2.63
2017-12-13T15:50:10.774Z,1.70
2017-12-13T15:52:38.476Z,1.40
2017-12-13T15:55:06.229Z,2.13
2017-12-13T15:57:33.862Z,1.43
2017-12-13T16:00:01.482Z,1.80
2017-12-13T16:02:29.130Z,1.97
2017-12-13T16:04:56.737Z,1.27
2017-12-13T16:07:24.399Z,1.57
2017-12-13T16:09:52.011Z,3.70
2017-12-13T16:12:19.675Z,2.10
2017-12-13T16:14:47.288Z,7.23
2017-12-13T16:17:14.924Z,1.40
2017-12-13T16:19:42.535Z,1.40
2017-12-13T16:22:10.193Z,1.40
2017-12-13T16:24:37.883Z,2.87
2017-12-13T16:27:05.507Z,2.37
2017-12-13T16:29:33.189Z,1.60
2017-12-13T16:32:00.809Z,1.60
2017-12-13T16:34:29.255Z,1.60
2017-12-13T16:36:56.892Z,0.97
2017-12-13T16:39:24.507Z,1.47
2017-12-13T16:41:52.925Z,1.33
2017-12-13T16:44:20.550Z,1.30
2017-12-13T16:46:48.979Z,1.80
2017-12-13T16:49:16.590Z,3.70
2017-12-13T16:51:45.009Z,1.40
2017-12-13T16:54:12.693Z,2.97
2017-12-13T16:56:40.334Z,1.43
2017-12-13T16:59:07.946Z,1.60
2017-12-13T17:01:35.588Z,2.13
2017-12-13T17:04:03.270Z,2.43
2017-12-13T17:06:31.681Z,1.50
2017-12-13T17:08:59.329Z,1.50
2017-12-13T17:11:27.699Z,1.87
2017-12-13T17:13:56.124Z,0.90
2017-12-13T17:16:23.748Z,0.90
2017-12-13T17:18:52.167Z,1.50
2017-12-13T17:21:19.789Z,1.20
2017-12-13T17:23:48.223Z,1.40
2017-12-13T17:26:15.883Z,1.40
2017-12-13T17:28:43.487Z,1.63
2017-12-13T17:31:12.027Z,1.80
2017-12-13T17:33:39.668Z,5.30
2017-12-13T17:36:07.476Z,1.43
2017-12-13T17:38:35.217Z,1.40
2017-12-13T17:41:02.830Z,1.17
2017-12-13T17:43:31.271Z,1.53
2017-12-13T17:45:59.127Z,2.03
2017-12-13T17:48:27.310Z,1.57
2017-12-13T17:50:54.912Z,1.40
2017-12-13T17:53:23.442Z,1.23
2017-12-13T17:55:51.119Z,1.50
2017-12-13T17:58:18.730Z,1.10
2017-12-13T18:00:47.159Z,2.70
2017-12-13T18:03:15.307Z,2.40
2017-12-13T18:05:42.958Z,1.77
2017-12-13T18:08:10.988Z,1.50
2017-12-13T18:10:38.690Z,2.30
2017-12-13T18:13:06.498Z,2.37
2017-12-13T18:15:34.252Z,1.23
2017-12-13T18:18:02.169Z,1.40
2017-12-13T18:20:30.317Z,2.47
2017-12-13T18:22:59.872Z,2.60
2017-12-13T18:25:27.487Z,1.40
2017-12-13T18:27:55.260Z,1.40
2017-12-13T18:30:22.990Z,1.90
2017-12-13T18:32:50.752Z,1.73
2017-12-13T18:35:18.439Z,1.20
2017-12-13T18:37:46.306Z,1.60
2017-12-13T18:40:13.949Z,1.80
2017-12-13T18:42:41.590Z,2.40
2017-12-13T18:45:09.265Z,1.40
2017-12-13T18:47:36.941Z,2.97
2017-12-13T18:50:04.622Z,1.20
2017-12-13T18:52:33.041Z,1.40
2017-12-13T18:55:00.934Z,1.70
2017-12-13T18:57:28.603Z,2.30
2017-12-13T18:59:56.514Z,1.30
2017-12-13T19:02:25.070Z,1.23
2017-12-13T19:04:54.248Z,1.70
2017-12-13T19:07:21.904Z,1.50
2017-12-13T19:09:49.596Z,1.77
2017-12-13T19:12:17.262Z,1.73
2017-12-13T19:14:44.907Z,1.70
2017-12-13T19:17:12.703Z,1.30
2017-12-13T19:19:40.432Z,1.90
2017-12-13T19:22:08.319Z,1.30
2017-12-13T19:24:36.097Z,1.87
2017-12-13T19:27:03.830Z,1.47
2017-12-13T19:29:31.470Z,1.63
2017-12-13T19:32:00.718Z,1.70
2017-12-13T19:34:29.834Z,2.47
2017-12-13T19:36:58.364Z,3.30
2017-12-13T19:39:26.239Z,2.23
2017-12-13T19:41:53.977Z,1.93
2017-12-13T19:44:21.631Z,3.00
2017-12-13T19:46:49.271Z,3.03
2017-12-13T19:49:17.679Z,3.23
2017-12-13T19:51:45.290Z,2.60
2017-12-13T19:54:13.045Z,1.77
2017-12-13T19:56:40.691Z,2.60
2017-12-13T19:59:08.337Z,3.27
2017-12-13T20:01:35.948Z,5.93
2017-12-13T20:04:04.127Z,2.03
2017-12-13T20:06:32.781Z,3.20
2017-12-13T20:09:00.743Z,3.23
2017-12-13T20:11:28.559Z,2.00
2017-12-13T20:13:58.025Z,3.93
2017-12-13T20:16:25.832Z,3.93
2017-12-13T20:18:54.876Z,2.77
2017-12-13T20:21:22.550Z,3.50
2017-12-13T20:23:51.072Z,2.97
2017-12-13T20:26:20.122Z,3.83
2017-12-13T20:28:48.200Z,3.20
2017-12-13T20:31:15.956Z,3.23
2017-12-13T20:33:43.571Z,3.00
2017-12-13T20:36:12.349Z,2.47
2017-12-13T20:38:41.156Z,3.60
2017-12-13T20:41:09.160Z,3.13
2017-12-13T20:43:36.808Z,2.83
2017-12-13T20:46:04.924Z,2.60
2017-12-13T20:48:33.073Z,2.60
2017-12-13T20:51:00.684Z,2.57
2017-12-13T20:53:29.113Z,2.20
2017-12-13T20:55:59.239Z,2.23
2017-12-13T20:58:26.861Z,4.37
2017-12-13T21:00:54.563Z,4.10
2017-12-13T21:03:22.180Z,4.77
2017-12-13T21:05:49.821Z,2.57
2017-12-13T21:08:18.237Z,2.60
2017-12-13T21:10:45.870Z,4.90
2017-12-13T21:13:14.261Z,2.90
2017-12-13T21:15:42.695Z,3.60
2017-12-13T21:18:10.310Z,3.90
2017-12-13T21:20:38.227Z,3.67
2017-12-13T21:23:06.107Z,3.90
2017-12-13T21:25:34.071Z,2.40
2017-12-13T21:28:02.109Z,2.83
2017-12-13T21:30:29.747Z,2.70
2017-12-13T21:32:57.561Z,3.13
2017-12-13T21:35:25.311Z,2.20
2017-12-13T21:37:53.071Z,2.40
2017-12-13T21:40:20.679Z,5.07
2017-12-13T21:42:49.221Z,2.30
2017-12-13T21:45:16.863Z,2.40
2017-12-13T21:47:44.544Z,1.53
2017-12-13T21:50:12.167Z,1.30
2017-12-13T21:52:39.794Z,2.60
2017-12-13T21:55:07.539Z,1.80
2017-12-13T21:57:35.402Z,2.10
2017-12-13T22:00:03.078Z,1.97
2017-12-13T22:02:30.690Z,1.90
2017-12-13T22:04:58.489Z,1.83
2017-12-13T22:07:26.114Z,1.37
2017-12-13T22:09:53.791Z,4.53
2017-12-13T22:12:21.422Z,1.43
2017-12-13T22:14:50.248Z,1.63
2017-12-13T22:17:18.930Z,1.47
2017-12-13T22:19:46.583Z,1.67
2017-12-13T22:22:14.237Z,1.73
2017-12-13T22:24:43.294Z,2.17
2017-12-13T22:27:10.947Z,1.50
2017-12-13T22:29:38.551Z,1.87
2017-12-13T22:32:06.935Z,1.43
2017-12-13T22:34:34.591Z,1.50
2017-12-13T22:37:02.964Z,2.20
2017-12-13T22:39:31.410Z,1.60
2017-12-13T22:41:59.087Z,1.27
2017-12-13T22:44:26.754Z,1.70
2017-12-13T22:46:54.586Z,1.53
2017-12-13T22:49:22.222Z,1.73
2017-12-13T22:51:49.853Z,1.60
2017-12-13T22:54:18.293Z,1.97
2017-12-13T22:56:45.955Z,1.50
2017-12-13T22:59:13.612Z,2.00
2017-12-13T23:01:41.282Z,1.80
2017-12-13T23:04:08.890Z,1.80
2017-12-13T23:06:37.325Z,1.63
2017-12-13T23:09:05.096Z,3.07
2017-12-13T23:11:32.711Z,1.80
2017-12-13T23:14:00.352Z,1.97
2017-12-13T23:16:28.915Z,1.97
2017-12-13T23:18:56.655Z,2.00
2017-12-13T23:21:24.280Z,2.07
2017-12-13T23:23:51.922Z,1.97
2017-12-13T23:26:20.696Z,1.47
2017-12-13T23:28:48.360Z,1.50
2017-12-13T23:31:16.104Z,2.00
2017-12-13T23:33:43.749Z,1.60
2017-12-13T23:36:11.624Z,1.40
2017-12-13T23:38:39.389Z,2.03
2017-12-13T23:41:06.996Z,2.20
2017-12-13T23:43:34.692Z,2.43
2017-12-13T23:46:02.670Z,1.77
2017-12-13T23:48:30.470Z,1.10
2017-12-13T23:50:58.395Z,1.37
2017-12-13T23:53:26.069Z,1.47
2017-12-13T23:55:53.704Z,1.77
2017-12-13T23:58:21.329Z,1.40
